sensor_id;sensor_type;location;lat;lon;timestamp;P1;durP1;ratioP1;P2;durP2;ratioP2
75272;SDS011;63869;52.344;16.928;2023-02-22T04:01:36;21.20;;;6.03;;
75272;SDS011;63869;52.344;16.928;2023-02-22T04:04:02;15.65;;;6.25;;
75272;SDS011;63869;52.344;16.928;2023-02-22T04:06:27;18.45;;;6.68;;
75272;SDS011;63869;52.344;16.928;2023-02-22T04:08:53;19.02;;;6.05;;
75272;SDS011;63869;52.344;16.928;2023-02-22T04:11:19;19.83;;;6.45;;
75272;SDS011;63869;52.344;16.928;2023-02-22T04:13:44;14.07;;;6.05;;
75272;SDS011;63869;52.344;16.928;2023-02-22T04:16:09;15.05;;;5.50;;
75272;SDS011;63869;52.344;16.928;2023-02-22T04:18:35;18.27;;;5.47;;
75272;SDS011;63869;52.344;16.928;2023-02-22T04:21:00;15.43;;;5.22;;
75272;SDS011;63869;52.344;16.928;2023-02-22T04:23:26;20.80;;;6.68;;
75272;SDS011;63869;52.344;16.928;2023-02-22T04:25:51;16.63;;;5.80;;
75272;SDS011;63869;52.344;16.928;2023-02-22T04:28:17;17.00;;;5.32;;
75272;SDS011;63869;52.344;16.928;2023-02-22T04:30:43;14.98;;;5.10;;
75272;SDS011;63869;52.344;16.928;2023-02-22T04:33:09;21.45;;;5.45;;
75272;SDS011;63869;52.344;16.928;2023-02-22T04:35:35;13.70;;;4.97;;
75272;SDS011;63869;52.344;16.928;2023-02-22T04:38:01;20.00;;;6.20;;
75272;SDS011;63869;52.344;16.928;2023-02-22T04:40:28;15.05;;;6.40;;
75272;SDS011;63869;52.344;16.928;2023-02-22T04:42:53;18.10;;;5.75;;
75272;SDS011;63869;52.344;16.928;2023-02-22T04:45:19;14.68;;;5.00;;
75272;SDS011;63869;52.344;16.928;2023-02-22T04:47:44;19.50;;;5.07;;
75272;SDS011;63869;52.344;16.928;2023-02-22T04:50:10;22.05;;;6.15;;
75272;SDS011;63869;52.344;16.928;2023-02-22T04:52:36;19.40;;;5.80;;
75272;SDS011;63869;52.344;16.928;2023-02-22T04:55:03;17.02;;;5.18;;
75272;SDS011;63869;52.344;16.928;2023-02-22T04:57:29;17.67;;;5.40;;
75272;SDS011;63869;52.344;16.928;2023-02-22T04:59:54;15.85;;;5.30;;
75272;SDS011;63869;52.344;16.928;2023-02-22T05:02:20;15.43;;;5.10;;
75272;SDS011;63869;52.344;16.928;2023-02-22T05:04:46;13.88;;;4.60;;
75272;SDS011;63869;52.344;16.928;2023-02-22T05:07:11;14.93;;;4.72;;
75272;SDS011;63869;52.344;16.928;2023-02-22T05:09:36;16.63;;;4.53;;
75272;SDS011;63869;52.344;16.928;2023-02-22T05:12:02;15.55;;;4.97;;
75272;SDS011;63869;52.344;16.928;2023-02-22T05:14:27;14.50;;;4.78;;
75272;SDS011;63869;52.344;16.928;2023-02-22T05:16:53;14.23;;;5.47;;
75272;SDS011;63869;52.344;16.928;2023-02-22T05:19:20;19.58;;;5.20;;
75272;SDS011;63869;52.344;16.928;2023-02-22T05:21:45;24.95;;;7.30;;
75272;SDS011;63869;52.344;16.928;2023-02-22T05:24:10;19.17;;;7.05;;
75272;SDS011;63869;52.344;16.928;2023-02-22T05:26:36;18.85;;;6.60;;
75272;SDS011;63869;52.344;16.928;2023-02-22T05:29:01;14.05;;;5.85;;
75272;SDS011;63869;52.344;16.928;2023-02-22T05:31:26;16.50;;;6.25;;
75272;SDS011;63869;52.344;16.928;2023-02-22T05:33:52;20.42;;;6.45;;
75272;SDS011;63869;52.344;16.928;2023-02-22T05:36:17;16.25;;;6.10;;
75272;SDS011;63869;52.344;16.928;2023-02-22T05:38:42;14.23;;;5.47;;
75272;SDS011;63869;52.344;16.928;2023-02-22T05:41:09;21.35;;;5.95;;
75272;SDS011;63869;52.344;16.928;2023-02-22T05:43:35;17.58;;;6.57;;
75272;SDS011;63869;52.344;16.928;2023-02-22T05:46:01;15.18;;;5.35;;
75272;SDS011;63869;52.344;16.928;2023-02-22T05:48:27;16.55;;;6.05;;
75272;SDS011;63869;52.344;16.928;2023-02-22T05:50:52;16.70;;;6.28;;
75272;SDS011;63869;52.344;16.928;2023-02-22T05:53:17;23.55;;;6.07;;
75272;SDS011;63869;52.344;16.928;2023-02-22T05:55:42;15.88;;;5.97;;
75272;SDS011;63869;52.344;16.928;2023-02-22T05:58:08;15.40;;;5.15;;
75272;SDS011;63869;52.344;16.928;2023-02-22T06:00:33;22.40;;;6.25;;
75272;SDS011;63869;52.344;16.928;2023-02-22T06:02:59;21.35;;;6.50;;
75272;SDS011;63869;52.344;16.928;2023-02-22T06:05:26;15.50;;;5.90;;
75272;SDS011;63869;52.344;16.928;2023-02-22T06:07:53;17.58;;;5.70;;
75272;SDS011;63869;52.344;16.928;2023-02-22T06:10:19;14.68;;;5.28;;
75272;SDS011;63869;52.344;16.928;2023-02-22T06:12:45;19.77;;;5.88;;
75272;SDS011;63869;52.344;16.928;2023-02-22T06:15:12;19.30;;;6.07;;
75272;SDS011;63869;52.344;16.928;2023-02-22T06:17:39;17.55;;;5.75;;
75272;SDS011;63869;52.344;16.928;2023-02-22T06:20:05;17.52;;;5.32;;
75272;SDS011;63869;52.344;16.928;2023-02-22T06:22:32;14.07;;;5.70;;
75272;SDS011;63869;52.344;16.928;2023-02-22T06:24:58;20.98;;;5.80;;
75272;SDS011;63869;52.344;16.928;2023-02-22T06:27:23;20.63;;;6.50;;
75272;SDS011;63869;52.344;16.928;2023-02-22T06:29:48;21.58;;;6.55;;
75272;SDS011;63869;52.344;16.928;2023-02-22T06:32:13;19.60;;;6.45;;
75272;SDS011;63869;52.344;16.928;2023-02-22T06:34:40;21.10;;;6.47;;
75272;SDS011;63869;52.344;16.928;2023-02-22T06:37:06;17.88;;;6.47;;
75272;SDS011;63869;52.344;16.928;2023-02-22T06:39:32;17.08;;;6.70;;
75272;SDS011;63869;52.344;16.928;2023-02-22T06:41:58;13.60;;;5.65;;
75272;SDS011;63869;52.344;16.928;2023-02-22T06:44:24;13.48;;;5.43;;
75272;SDS011;63869;52.344;16.928;2023-02-22T06:46:50;12.57;;;5.05;;
75272;SDS011;63869;52.344;16.928;2023-02-22T06:49:16;21.65;;;5.75;;
75272;SDS011;63869;52.344;16.928;2023-02-22T06:51:42;15.23;;;5.63;;
75272;SDS011;63869;52.344;16.928;2023-02-22T06:54:09;16.40;;;5.00;;
75272;SDS011;63869;52.344;16.928;2023-02-22T06:56:34;17.80;;;5.32;;
75272;SDS011;63869;52.344;16.928;2023-02-22T06:59:02;13.27;;;5.32;;
75272;SDS011;63869;52.344;16.928;2023-02-22T07:01:29;16.30;;;6.38;;
75272;SDS011;63869;52.344;16.928;2023-02-22T07:03:54;22.10;;;8.07;;
75272;SDS011;63869;52.344;16.928;2023-02-22T07:06:20;19.85;;;7.30;;
75272;SDS011;63869;52.344;16.928;2023-02-22T07:08:46;27.63;;;8.02;;
75272;SDS011;63869;52.344;16.928;2023-02-22T07:11:12;18.73;;;7.95;;
75272;SDS011;63869;52.344;16.928;2023-02-22T07:13:37;23.95;;;7.57;;
75272;SDS011;63869;52.344;16.928;2023-02-22T07:16:03;19.95;;;8.88;;
75272;SDS011;63869;52.344;16.928;2023-02-22T07:18:29;29.20;;;9.40;;
75272;SDS011;63869;52.344;16.928;2023-02-22T07:20:54;27.40;;;10.40;;
75272;SDS011;63869;52.344;16.928;2023-02-22T07:23:22;25.15;;;9.52;;
75272;SDS011;63869;52.344;16.928;2023-02-22T07:25:48;32.92;;;9.50;;
75272;SDS011;63869;52.344;16.928;2023-02-22T07:28:13;24.85;;;8.52;;
75272;SDS011;63869;52.344;16.928;2023-02-22T07:30:39;26.50;;;9.10;;
75272;SDS011;63869;52.344;16.928;2023-02-22T07:33:06;24.42;;;8.05;;
75272;SDS011;63869;52.344;16.928;2023-02-22T07:35:35;25.90;;;8.27;;
75272;SDS011;63869;52.344;16.928;2023-02-22T07:38:03;23.10;;;8.38;;
75272;SDS011;63869;52.344;16.928;2023-02-22T07:40:30;18.92;;;8.07;;
75272;SDS011;63869;52.344;16.928;2023-02-22T07:42:56;25.27;;;8.70;;
75272;SDS011;63869;52.344;16.928;2023-02-22T07:47:59;17.60;;;7.20;;
75272;SDS011;63869;52.344;16.928;2023-02-22T07:50:28;18.58;;;8.07;;
75272;SDS011;63869;52.344;16.928;2023-02-22T07:52:55;17.40;;;6.95;;
75272;SDS011;63869;52.344;16.928;2023-02-22T07:55:22;20.13;;;7.68;;
75272;SDS011;63869;52.344;16.928;2023-02-22T07:57:50;20.52;;;6.43;;
75272;SDS011;63869;52.344;16.928;2023-02-22T08:00:21;17.23;;;6.60;;
75272;SDS011;63869;52.344;16.928;2023-02-22T08:02:51;18.60;;;6.43;;
75272;SDS011;63869;52.344;16.928;2023-02-22T08:05:17;15.80;;;5.45;;
75272;SDS011;63869;52.344;16.928;2023-02-22T08:07:43;12.30;;;5.82;;
75272;SDS011;63869;52.344;16.928;2023-02-22T08:10:09;14.85;;;5.85;;
75272;SDS011;63869;52.344;16.928;2023-02-22T08:12:36;17.02;;;6.22;;
75272;SDS011;63869;52.344;16.928;2023-02-22T08:15:06;14.43;;;6.00;;
75272;SDS011;63869;52.344;16.928;2023-02-22T08:17:32;17.33;;;5.85;;
75272;SDS011;63869;52.344;16.928;2023-02-22T08:19:58;14.45;;;6.22;;
75272;SDS011;63869;52.344;16.928;2023-02-22T08:22:23;12.10;;;4.93;;
75272;SDS011;63869;52.344;16.928;2023-02-22T08:24:51;15.52;;;5.55;;
75272;SDS011;63869;52.344;16.928;2023-02-22T08:27:21;12.93;;;5.50;;
75272;SDS011;63869;52.344;16.928;2023-02-22T08:29:51;17.13;;;5.73;;
75272;SDS011;63869;52.344;16.928;2023-02-22T08:32:16;17.52;;;5.50;;
75272;SDS011;63869;52.344;16.928;2023-02-22T08:34:42;16.25;;;5.60;;
75272;SDS011;63869;52.344;16.928;2023-02-22T08:37:11;16.08;;;5.93;;
75272;SDS011;63869;52.344;16.928;2023-02-22T08:39:37;14.63;;;5.55;;
75272;SDS011;63869;52.344;16.928;2023-02-22T08:42:02;16.42;;;5.85;;
75272;SDS011;63869;52.344;16.928;2023-02-22T08:44:28;16.40;;;6.70;;
75272;SDS011;63869;52.344;16.928;2023-02-22T08:46:53;14.57;;;5.75;;
75272;SDS011;63869;52.344;16.928;2023-02-22T08:49:19;12.27;;;5.00;;
75272;SDS011;63869;52.344;16.928;2023-02-22T08:51:44;18.00;;;6.00;;
75272;SDS011;63869;52.344;16.928;2023-02-22T08:54:11;14.52;;;5.88;;
75272;SDS011;63869;52.344;16.928;2023-02-22T08:56:38;15.38;;;5.93;;
75272;SDS011;63869;52.344;16.928;2023-02-22T08:59:04;15.13;;;5.88;;
75272;SDS011;63869;52.344;16.928;2023-02-22T09:01:29;16.83;;;6.10;;
75272;SDS011;63869;52.344;16.928;2023-02-22T09:03:56;14.55;;;5.30;;
75272;SDS011;63869;52.344;16.928;2023-02-22T09:06:22;12.18;;;5.65;;
75272;SDS011;63869;52.344;16.928;2023-02-22T09:08:47;12.98;;;5.72;;
75272;SDS011;63869;52.344;16.928;2023-02-22T09:11:13;14.13;;;7.25;;
75272;SDS011;63869;52.344;16.928;2023-02-22T09:13:38;19.48;;;6.10;;
75272;SDS011;63869;52.344;16.928;2023-02-22T09:16:04;18.42;;;6.53;;
75272;SDS011;63869;52.344;16.928;2023-02-22T09:18:30;16.88;;;6.60;;
75272;SDS011;63869;52.344;16.928;2023-02-22T09:20:55;17.65;;;7.72;;
75272;SDS011;63869;52.344;16.928;2023-02-22T09:23:20;15.10;;;7.40;;
75272;SDS011;63869;52.344;16.928;2023-02-22T09:25:46;16.33;;;7.10;;
75272;SDS011;63869;52.344;16.928;2023-02-22T09:28:12;17.52;;;7.53;;
75272;SDS011;63869;52.344;16.928;2023-02-22T09:30:38;17.42;;;7.57;;
75272;SDS011;63869;52.344;16.928;2023-02-22T09:33:14;17.20;;;8.05;;
75272;SDS011;63869;52.344;16.928;2023-02-22T09:35:41;19.08;;;7.38;;
75272;SDS011;63869;52.344;16.928;2023-02-22T09:38:10;19.13;;;8.15;;
75272;SDS011;63869;52.344;16.928;2023-02-22T09:40:40;16.40;;;7.25;;
75272;SDS011;63869;52.344;16.928;2023-02-22T09:46:04;14.93;;;7.30;;
75272;SDS011;63869;52.344;16.928;2023-02-22T09:51:32;20.30;;;7.57;;
75272;SDS011;63869;52.344;16.928;2023-02-22T09:54:05;16.55;;;8.07;;
75272;SDS011;63869;52.344;16.928;2023-02-22T09:56:38;18.67;;;8.13;;
75272;SDS011;63869;52.344;16.928;2023-02-22T09:59:05;17.17;;;8.50;;
75272;SDS011;63869;52.344;16.928;2023-02-22T10:01:44;14.25;;;7.70;;
75272;SDS011;63869;52.344;16.928;2023-02-22T10:07:15;17.48;;;8.38;;
75272;SDS011;63869;52.344;16.928;2023-02-22T10:09:49;13.77;;;6.85;;
75272;SDS011;63869;52.344;16.928;2023-02-22T10:12:35;14.27;;;6.20;;
75272;SDS011;63869;52.344;16.928;2023-02-22T10:23:37;13.65;;;6.45;;
75272;SDS011;63869;52.344;16.928;2023-02-22T10:26:19;13.75;;;6.47;;
75272;SDS011;63869;52.344;16.928;2023-02-22T10:28:51;13.13;;;6.82;;
75272;SDS011;63869;52.344;16.928;2023-02-22T10:31:20;12.55;;;6.78;;
75272;SDS011;63869;52.344;16.928;2023-02-22T10:33:52;15.32;;;7.22;;
75272;SDS011;63869;52.344;16.928;2023-02-22T10:36:22;13.32;;;7.07;;
75272;SDS011;63869;52.344;16.928;2023-02-22T10:38:52;11.18;;;6.50;;
75272;SDS011;63869;52.344;16.928;2023-02-22T10:41:30;11.90;;;6.20;;
75272;SDS011;63869;52.344;16.928;2023-02-22T10:43:57;14.43;;;6.72;;
75272;SDS011;63869;52.344;16.928;2023-02-22T10:46:23;13.63;;;6.75;;
75272;SDS011;63869;52.344;16.928;2023-02-22T10:48:53;17.10;;;6.45;;
75272;SDS011;63869;52.344;16.928;2023-02-22T10:51:26;15.38;;;6.40;;
75272;SDS011;63869;52.344;16.928;2023-02-22T10:54:09;11.45;;;6.18;;
75272;SDS011;63869;52.344;16.928;2023-02-22T10:56:50;12.20;;;6.25;;
75272;SDS011;63869;52.344;16.928;2023-02-22T10:59:53;17.85;;;9.27;;
75272;SDS011;63869;52.344;16.928;2023-02-22T11:04:46;10.43;;;5.43;;
75272;SDS011;63869;52.344;16.928;2023-02-22T11:07:24;9.63;;;5.10;;
75272;SDS011;63869;52.344;16.928;2023-02-22T11:09:58;11.32;;;5.80;;
75272;SDS011;63869;52.344;16.928;2023-02-22T11:14:54;12.50;;;6.85;;
75272;SDS011;63869;52.344;16.928;2023-02-22T11:17:30;14.25;;;6.55;;
75272;SDS011;63869;52.344;16.928;2023-02-22T11:19:58;18.45;;;7.03;;
75272;SDS011;63869;52.344;16.928;2023-02-22T11:22:34;14.07;;;7.38;;
75272;SDS011;63869;52.344;16.928;2023-02-22T11:25:04;13.77;;;7.28;;
75272;SDS011;63869;52.344;16.928;2023-02-22T11:27:36;12.95;;;7.90;;
75272;SDS011;63869;52.344;16.928;2023-02-22T11:32:49;15.35;;;7.40;;
75272;SDS011;63869;52.344;16.928;2023-02-22T11:35:22;13.88;;;7.22;;
75272;SDS011;63869;52.344;16.928;2023-02-22T11:38:08;14.18;;;8.10;;
75272;SDS011;63869;52.344;16.928;2023-02-22T11:40:42;14.80;;;7.25;;
75272;SDS011;63869;52.344;16.928;2023-02-22T11:43:12;14.60;;;7.25;;
75272;SDS011;63869;52.344;16.928;2023-02-22T11:46:02;14.73;;;7.28;;
75272;SDS011;63869;52.344;16.928;2023-02-22T11:48:29;17.55;;;7.65;;
75272;SDS011;63869;52.344;16.928;2023-02-22T11:51:05;12.20;;;6.78;;
75272;SDS011;63869;52.344;16.928;2023-02-22T11:53:59;14.35;;;7.05;;
75272;SDS011;63869;52.344;16.928;2023-02-22T11:56:52;12.38;;;6.57;;
75272;SDS011;63869;52.344;16.928;2023-02-22T11:59:42;12.50;;;6.63;;
75272;SDS011;63869;52.344;16.928;2023-02-22T12:02:32;13.70;;;6.05;;
75272;SDS011;63869;52.344;16.928;2023-02-22T12:18:38;12.32;;;5.78;;
75272;SDS011;63869;52.344;16.928;2023-02-22T12:21:20;11.48;;;5.70;;
75272;SDS011;63869;52.344;16.928;2023-02-22T12:24:00;15.50;;;6.20;;
75272;SDS011;63869;52.344;16.928;2023-02-22T12:26:41;8.45;;;4.88;;
75272;SDS011;63869;52.344;16.928;2023-02-22T12:34:50;13.18;;;5.38;;
75272;SDS011;63869;52.344;16.928;2023-02-22T12:39:58;11.95;;;5.55;;
75272;SDS011;63869;52.344;16.928;2023-02-22T12:45:12;12.88;;;5.65;;
75272;SDS011;63869;52.344;16.928;2023-02-22T12:47:48;9.57;;;5.45;;
75272;SDS011;63869;52.344;16.928;2023-02-22T12:50:22;12.63;;;5.15;;
75272;SDS011;63869;52.344;16.928;2023-02-22T12:52:56;11.70;;;4.88;;
75272;SDS011;63869;52.344;16.928;2023-02-22T13:03:42;15.30;;;6.93;;
75272;SDS011;63869;52.344;16.928;2023-02-22T13:06:21;12.63;;;6.50;;
75272;SDS011;63869;52.344;16.928;2023-02-22T13:09:13;13.07;;;5.90;;
75272;SDS011;63869;52.344;16.928;2023-02-22T13:12:02;10.90;;;5.40;;
75272;SDS011;63869;52.344;16.928;2023-02-22T13:17:42;10.82;;;5.63;;
75272;SDS011;63869;52.344;16.928;2023-02-22T13:20:24;15.90;;;7.88;;
75272;SDS011;63869;52.344;16.928;2023-02-22T13:22:57;11.73;;;4.93;;
75272;SDS011;63869;52.344;16.928;2023-02-22T13:25:47;10.63;;;5.28;;
75272;SDS011;63869;52.344;16.928;2023-02-22T13:28:38;15.10;;;5.40;;
75272;SDS011;63869;52.344;16.928;2023-02-22T13:31:21;10.30;;;4.78;;
75272;SDS011;63869;52.344;16.928;2023-02-22T13:34:15;8.93;;;4.45;;
75272;SDS011;63869;52.344;16.928;2023-02-22T13:51:36;9.95;;;4.18;;
75272;SDS011;63869;52.344;16.928;2023-02-22T13:57:33;7.78;;;4.07;;
75272;SDS011;63869;52.344;16.928;2023-02-22T14:02:59;19.77;;;9.52;;
75272;SDS011;63869;52.344;16.928;2023-02-22T14:10:53;7.53;;;3.65;;
75272;SDS011;63869;52.344;16.928;2023-02-22T14:16:26;8.98;;;4.32;;
75272;SDS011;63869;52.344;16.928;2023-02-22T14:21:30;11.88;;;4.55;;
75272;SDS011;63869;52.344;16.928;2023-02-22T14:24:05;8.48;;;3.80;;
75272;SDS011;63869;52.344;16.928;2023-02-22T14:26:43;9.50;;;3.75;;
75272;SDS011;63869;52.344;16.928;2023-02-22T14:29:25;10.80;;;5.88;;
75272;SDS011;63869;52.344;16.928;2023-02-22T14:32:00;8.65;;;3.75;;
75272;SDS011;63869;52.344;16.928;2023-02-22T14:37:06;6.25;;;3.42;;
75272;SDS011;63869;52.344;16.928;2023-02-22T14:39:38;6.97;;;3.00;;
75272;SDS011;63869;52.344;16.928;2023-02-22T14:44:53;8.05;;;3.03;;
75272;SDS011;63869;52.344;16.928;2023-02-22T14:50:32;7.95;;;3.40;;
75272;SDS011;63869;52.344;16.928;2023-02-22T15:04:22;9.05;;;4.38;;
75272;SDS011;63869;52.344;16.928;2023-02-22T15:06:52;11.60;;;5.53;;
75272;SDS011;63869;52.344;16.928;2023-02-22T15:09:20;8.57;;;3.90;;
75272;SDS011;63869;52.344;16.928;2023-02-22T15:11:52;8.23;;;4.32;;
75272;SDS011;63869;52.344;16.928;2023-02-22T15:14:37;10.18;;;4.57;;
75272;SDS011;63869;52.344;16.928;2023-02-22T15:17:18;10.40;;;4.65;;
75272;SDS011;63869;52.344;16.928;2023-02-22T15:19:45;9.20;;;4.68;;
75272;SDS011;63869;52.344;16.928;2023-02-22T15:22:34;10.60;;;4.47;;
75272;SDS011;63869;52.344;16.928;2023-02-22T15:25:07;10.13;;;3.85;;
75272;SDS011;63869;52.344;16.928;2023-02-22T15:27:35;8.60;;;4.13;;
75272;SDS011;63869;52.344;16.928;2023-02-22T15:30:03;7.55;;;3.85;;
75272;SDS011;63869;52.344;16.928;2023-02-22T15:35:11;7.38;;;3.83;;
75272;SDS011;63869;52.344;16.928;2023-02-22T15:37:58;7.68;;;4.30;;
75272;SDS011;63869;52.344;16.928;2023-02-22T15:40:37;9.93;;;4.25;;
75272;SDS011;63869;52.344;16.928;2023-02-22T15:43:07;10.10;;;4.53;;
75272;SDS011;63869;52.344;16.928;2023-02-22T15:45:44;9.60;;;4.97;;
75272;SDS011;63869;52.344;16.928;2023-02-22T15:48:10;9.63;;;4.68;;
75272;SDS011;63869;52.344;16.928;2023-02-22T15:50:36;9.30;;;5.10;;
75272;SDS011;63869;52.344;16.928;2023-02-22T15:53:02;10.23;;;5.18;;
75272;SDS011;63869;52.344;16.928;2023-02-22T15:55:40;13.00;;;5.07;;
75272;SDS011;63869;52.344;16.928;2023-02-22T15:58:20;30.35;;;10.32;;
75272;SDS011;63869;52.344;16.928;2023-02-22T16:00:49;35.35;;;10.77;;
75272;SDS011;63869;52.344;16.928;2023-02-22T16:03:24;34.30;;;10.00;;
75272;SDS011;63869;52.344;16.928;2023-02-22T16:05:57;33.35;;;11.25;;
75272;SDS011;63869;52.344;16.928;2023-02-22T16:11:25;19.55;;;6.50;;
75272;SDS011;63869;52.344;16.928;2023-02-22T16:14:01;14.05;;;6.10;;
75272;SDS011;63869;52.344;16.928;2023-02-22T16:16:30;14.05;;;5.45;;
75272;SDS011;63869;52.344;16.928;2023-02-22T16:21:56;10.23;;;4.88;;
75272;SDS011;63869;52.344;16.928;2023-02-22T16:24:30;14.73;;;5.43;;
75272;SDS011;63869;52.344;16.928;2023-02-22T16:27:14;10.75;;;5.05;;
75272;SDS011;63869;52.344;16.928;2023-02-22T16:29:43;13.32;;;6.00;;
75272;SDS011;63869;52.344;16.928;2023-02-22T16:32:09;19.98;;;6.75;;
75272;SDS011;63869;52.344;16.928;2023-02-22T16:34:36;17.30;;;6.80;;
75272;SDS011;63869;52.344;16.928;2023-02-22T16:37:02;16.10;;;6.15;;
75272;SDS011;63869;52.344;16.928;2023-02-22T16:39:29;16.40;;;6.18;;
75272;SDS011;63869;52.344;16.928;2023-02-22T16:41:56;13.73;;;6.05;;
75272;SDS011;63869;52.344;16.928;2023-02-22T16:44:23;15.90;;;6.53;;
75272;SDS011;63869;52.344;16.928;2023-02-22T16:46:58;18.05;;;6.95;;
75272;SDS011;63869;52.344;16.928;2023-02-22T16:49:26;16.00;;;6.35;;
75272;SDS011;63869;52.344;16.928;2023-02-22T16:54:24;14.07;;;6.65;;
75272;SDS011;63869;52.344;16.928;2023-02-22T16:56:54;14.25;;;6.10;;
75272;SDS011;63869;52.344;16.928;2023-02-22T16:59:20;13.93;;;6.78;;
75272;SDS011;63869;52.344;16.928;2023-02-22T17:01:46;10.90;;;5.78;;
75272;SDS011;63869;52.344;16.928;2023-02-22T17:04:13;13.48;;;6.18;;
75272;SDS011;63869;52.344;16.928;2023-02-22T17:09:11;9.07;;;4.65;;
75272;SDS011;63869;52.344;16.928;2023-02-22T17:11:37;11.18;;;5.18;;
75272;SDS011;63869;52.344;16.928;2023-02-22T17:14:03;11.95;;;4.82;;
75272;SDS011;63869;52.344;16.928;2023-02-22T17:16:28;10.73;;;4.70;;
75272;SDS011;63869;52.344;16.928;2023-02-22T17:18:54;12.27;;;5.55;;
75272;SDS011;63869;52.344;16.928;2023-02-22T17:21:19;10.35;;;4.95;;
75272;SDS011;63869;52.344;16.928;2023-02-22T17:23:44;11.10;;;4.93;;
75272;SDS011;63869;52.344;16.928;2023-02-22T17:26:10;10.25;;;4.60;;
75272;SDS011;63869;52.344;16.928;2023-02-22T17:28:39;13.02;;;5.43;;
75272;SDS011;63869;52.344;16.928;2023-02-22T17:31:09;10.45;;;4.88;;
75272;SDS011;63869;52.344;16.928;2023-02-22T17:33:43;11.35;;;5.10;;
75272;SDS011;63869;52.344;16.928;2023-02-22T17:36:08;8.85;;;4.80;;
75272;SDS011;63869;52.344;16.928;2023-02-22T17:38:34;9.73;;;4.45;;
75272;SDS011;63869;52.344;16.928;2023-02-22T17:41:00;11.40;;;5.07;;
75272;SDS011;63869;52.344;16.928;2023-02-22T17:43:27;12.07;;;5.40;;
75272;SDS011;63869;52.344;16.928;2023-02-22T17:45:52;8.65;;;4.50;;
75272;SDS011;63869;52.344;16.928;2023-02-22T17:48:18;8.70;;;4.47;;
75272;SDS011;63869;52.344;16.928;2023-02-22T17:50:44;12.13;;;4.53;;
75272;SDS011;63869;52.344;16.928;2023-02-22T17:53:12;11.93;;;5.43;;
75272;SDS011;63869;52.344;16.928;2023-02-22T17:55:40;10.27;;;5.53;;
75272;SDS011;63869;52.344;16.928;2023-02-22T17:58:07;9.55;;;5.32;;
75272;SDS011;63869;52.344;16.928;2023-02-22T18:00:39;11.25;;;4.93;;
75272;SDS011;63869;52.344;16.928;2023-02-22T18:03:08;13.23;;;5.20;;
75272;SDS011;63869;52.344;16.928;2023-02-22T18:05:39;13.45;;;5.10;;
75272;SDS011;63869;52.344;16.928;2023-02-22T18:08:10;11.27;;;5.30;;
75272;SDS011;63869;52.344;16.928;2023-02-22T18:10:36;10.88;;;5.00;;
75272;SDS011;63869;52.344;16.928;2023-02-22T18:13:01;11.32;;;5.00;;
75272;SDS011;63869;52.344;16.928;2023-02-22T18:15:28;14.02;;;5.55;;
75272;SDS011;63869;52.344;16.928;2023-02-22T18:17:54;9.93;;;4.90;;
75272;SDS011;63869;52.344;16.928;2023-02-22T18:20:20;10.20;;;5.05;;
75272;SDS011;63869;52.344;16.928;2023-02-22T18:22:55;13.43;;;5.40;;
75272;SDS011;63869;52.344;16.928;2023-02-22T18:25:23;10.40;;;5.30;;
75272;SDS011;63869;52.344;16.928;2023-02-22T18:27:49;11.07;;;5.30;;
75272;SDS011;63869;52.344;16.928;2023-02-22T18:30:14;16.33;;;6.55;;
75272;SDS011;63869;52.344;16.928;2023-02-22T18:32:39;13.27;;;5.82;;
75272;SDS011;63869;52.344;16.928;2023-02-22T18:35:05;15.05;;;5.65;;
75272;SDS011;63869;52.344;16.928;2023-02-22T18:37:34;15.20;;;5.53;;
75272;SDS011;63869;52.344;16.928;2023-02-22T18:39:59;14.65;;;6.18;;
75272;SDS011;63869;52.344;16.928;2023-02-22T18:42:25;13.25;;;5.78;;
75272;SDS011;63869;52.344;16.928;2023-02-22T18:44:52;13.73;;;5.57;;
75272;SDS011;63869;52.344;16.928;2023-02-22T18:47:19;12.23;;;6.20;;
75272;SDS011;63869;52.344;16.928;2023-02-22T18:49:45;15.30;;;5.82;;
75272;SDS011;63869;52.344;16.928;2023-02-22T18:52:10;12.60;;;5.60;;
75272;SDS011;63869;52.344;16.928;2023-02-22T18:54:37;14.70;;;6.13;;
75272;SDS011;63869;52.344;16.928;2023-02-22T18:57:04;12.25;;;5.35;;
75272;SDS011;63869;52.344;16.928;2023-02-22T18:59:29;12.27;;;5.93;;
75272;SDS011;63869;52.344;16.928;2023-02-22T19:01:55;17.85;;;6.82;;
75272;SDS011;63869;52.344;16.928;2023-02-22T19:04:20;19.40;;;7.82;;
75272;SDS011;63869;52.344;16.928;2023-02-22T19:06:46;18.25;;;7.20;;
75272;SDS011;63869;52.344;16.928;2023-02-22T19:09:13;19.38;;;8.38;;
75272;SDS011;63869;52.344;16.928;2023-02-22T19:11:39;15.65;;;7.55;;
75272;SDS011;63869;52.344;16.928;2023-02-22T19:14:08;16.58;;;7.80;;
75272;SDS011;63869;52.344;16.928;2023-02-22T19:16:34;18.58;;;8.00;;
75272;SDS011;63869;52.344;16.928;2023-02-22T19:18:59;20.13;;;7.88;;
75272;SDS011;63869;52.344;16.928;2023-02-22T19:21:25;20.20;;;8.85;;
75272;SDS011;63869;52.344;16.928;2023-02-22T19:23:54;22.20;;;8.18;;
75272;SDS011;63869;52.344;16.928;2023-02-22T19:26:20;18.45;;;7.82;;
75272;SDS011;63869;52.344;16.928;2023-02-22T19:28:49;19.05;;;8.30;;
75272;SDS011;63869;52.344;16.928;2023-02-22T19:31:17;21.90;;;8.57;;
75272;SDS011;63869;52.344;16.928;2023-02-22T19:33:53;19.35;;;8.07;;
75272;SDS011;63869;52.344;16.928;2023-02-22T19:36:19;17.65;;;8.23;;
75272;SDS011;63869;52.344;16.928;2023-02-22T19:38:49;20.80;;;8.68;;
75272;SDS011;63869;52.344;16.928;2023-02-22T19:41:19;20.70;;;8.38;;
75272;SDS011;63869;52.344;16.928;2023-02-22T19:43:48;19.40;;;8.15;;
75272;SDS011;63869;52.344;16.928;2023-02-22T19:46:16;20.88;;;8.60;;
75272;SDS011;63869;52.344;16.928;2023-02-22T19:48:42;17.65;;;8.25;;
75272;SDS011;63869;52.344;16.928;2023-02-22T19:51:09;19.98;;;7.55;;
75272;SDS011;63869;52.344;16.928;2023-02-22T19:53:36;21.02;;;8.27;;
75272;SDS011;63869;52.344;16.928;2023-02-22T19:56:09;18.50;;;7.72;;
75272;SDS011;63869;52.344;16.928;2023-02-22T19:58:40;18.75;;;8.43;;
75272;SDS011;63869;52.344;16.928;2023-02-22T20:01:09;20.40;;;7.63;;
75272;SDS011;63869;52.344;16.928;2023-02-22T20:03:36;20.73;;;8.48;;
75272;SDS011;63869;52.344;16.928;2023-02-22T20:06:02;17.50;;;8.25;;
75272;SDS011;63869;52.344;16.928;2023-02-22T20:08:32;19.65;;;7.95;;
75272;SDS011;63869;52.344;16.928;2023-02-22T20:10:59;19.27;;;7.57;;
75272;SDS011;63869;52.344;16.928;2023-02-22T20:13:25;17.05;;;7.57;;
75272;SDS011;63869;52.344;16.928;2023-02-22T20:15:50;16.70;;;8.13;;
75272;SDS011;63869;52.344;16.928;2023-02-22T20:18:15;16.30;;;7.72;;
75272;SDS011;63869;52.344;16.928;2023-02-22T20:20:41;20.38;;;8.18;;
75272;SDS011;63869;52.344;16.928;2023-02-22T20:23:06;18.58;;;8.00;;
75272;SDS011;63869;52.344;16.928;2023-02-22T20:25:33;23.95;;;8.88;;
75272;SDS011;63869;52.344;16.928;2023-02-22T20:27:59;16.77;;;7.70;;
75272;SDS011;63869;52.344;16.928;2023-02-22T20:30:25;17.95;;;8.15;;
75272;SDS011;63869;52.344;16.928;2023-02-22T20:32:50;16.73;;;8.15;;
75272;SDS011;63869;52.344;16.928;2023-02-22T20:35:16;19.83;;;8.00;;
75272;SDS011;63869;52.344;16.928;2023-02-22T20:37:41;15.68;;;7.82;;
75272;SDS011;63869;52.344;16.928;2023-02-22T20:40:07;17.90;;;8.10;;
75272;SDS011;63869;52.344;16.928;2023-02-22T20:42:34;17.40;;;7.93;;
75272;SDS011;63869;52.344;16.928;2023-02-22T20:44:59;19.67;;;7.88;;